createdAt,value
2019-05-14T00:00:24.986Z,8.34
2019-05-14T00:01:24.953Z,8.20
2019-05-14T00:02:24.941Z,8.06
2019-05-14T00:03:24.931Z,8.04
2019-05-14T00:04:24.916Z,7.81
2019-05-14T00:05:24.938Z,7.69
2019-05-14T00:06:24.901Z,7.47
2019-05-14T00:07:24.884Z,7.31
2019-05-14T00:08:24.876Z,7.24
2019-05-14T00:09:24.875Z,7.06
2019-05-14T00:10:24.884Z,7.10
2019-05-14T00:11:24.838Z,7.13
2019-05-14T00:12:24.833Z,7.06
2019-05-14T00:13:24.818Z,7.18
2019-05-14T00:14:35.702Z,7.11
2019-05-14T00:15:25.820Z,7.13
2019-05-14T00:16:24.785Z,7.22
2019-05-14T00:17:24.775Z,7.16
2019-05-14T00:18:24.762Z,7.33
2019-05-14T00:19:24.752Z,7.33
2019-05-14T00:20:24.742Z,7.25
2019-05-14T00:21:24.762Z,7.25
2019-05-14T00:22:24.717Z,7.25
2019-05-14T00:23:24.707Z,7.31
2019-05-14T00:24:24.696Z,7.24
2019-05-14T00:25:24.685Z,7.31
2019-05-14T00:26:24.696Z,7.28
2019-05-14T00:27:24.661Z,7.18
2019-05-14T00:28:24.655Z,7.26
2019-05-14T00:29:24.639Z,7.24
2019-05-14T00:30:24.628Z,7.29
2019-05-14T00:31:24.639Z,7.31
2019-05-14T00:32:24.605Z,7.31
2019-05-14T00:33:24.594Z,7.31
2019-05-14T00:34:24.584Z,7.31
2019-05-14T00:35:24.573Z,7.29
2019-05-14T00:36:24.590Z,7.28
2019-05-14T00:37:24.551Z,7.31
2019-05-14T00:38:24.545Z,7.29
2019-05-14T00:39:24.530Z,7.28
2019-05-14T00:40:24.515Z,7.40
2019-05-14T00:41:24.534Z,7.39
2019-05-14T00:42:24.495Z,7.42
2019-05-14T00:43:24.485Z,7.39
2019-05-14T00:44:24.477Z,7.31
2019-05-14T00:45:24.465Z,7.34
2019-05-14T00:46:24.478Z,7.25
2019-05-14T00:47:24.442Z,7.15
2019-05-14T00:48:24.430Z,7.24
2019-05-14T00:49:24.420Z,7.19
2019-05-14T00:50:24.419Z,7.21
2019-05-14T00:51:24.422Z,7.21
2019-05-14T00:52:24.395Z,7.11
2019-05-14T00:53:24.383Z,7.07
2019-05-14T00:54:24.363Z,7.08
2019-05-14T00:55:24.351Z,7.10
2019-05-14T00:56:24.364Z,7.04
2019-05-14T00:57:24.331Z,6.96
2019-05-14T00:58:24.322Z,6.92
2019-05-14T00:59:24.312Z,6.83
2019-05-14T01:00:24.302Z,6.88
2019-05-14T01:01:24.310Z,6.83
2019-05-14T01:02:24.274Z,6.83
2019-05-14T01:03:24.263Z,6.75
2019-05-14T01:04:24.259Z,6.61
2019-05-14T01:05:24.244Z,6.67
2019-05-14T01:06:24.256Z,6.67
2019-05-14T01:07:24.221Z,6.60
2019-05-14T01:08:24.209Z,6.63
2019-05-14T01:09:24.201Z,6.71
2019-05-14T01:10:24.189Z,6.70
2019-05-14T01:11:24.205Z,6.71
2019-05-14T01:12:24.169Z,6.68
2019-05-14T01:13:24.154Z,6.75
2019-05-14T01:14:24.153Z,6.70
2019-05-14T01:15:24.136Z,6.71
2019-05-14T01:16:24.143Z,6.67
2019-05-14T01:17:24.113Z,6.64
2019-05-14T01:18:24.101Z,6.61
2019-05-14T01:19:24.095Z,6.61
2019-05-14T01:20:24.080Z,6.63
2019-05-14T01:21:24.093Z,6.65
2019-05-14T01:22:24.057Z,6.57
2019-05-14T01:23:24.048Z,6.64
2019-05-14T01:24:24.035Z,6.70
2019-05-14T01:25:24.023Z,6.71
2019-05-14T01:26:24.041Z,6.52
2019-05-14T01:27:24.007Z,6.55
2019-05-14T01:28:23.988Z,6.60
2019-05-14T01:29:23.986Z,6.52
2019-05-14T01:30:23.967Z,6.53
2019-05-14T01:31:23.980Z,6.61
2019-05-14T01:32:23.947Z,6.50
2019-05-14T01:33:23.933Z,6.50
2019-05-14T01:34:23.924Z,6.60
2019-05-14T01:35:23.921Z,6.49
2019-05-14T01:36:23.927Z,6.53
2019-05-14T01:37:23.890Z,6.56
2019-05-14T01:38:23.881Z,6.34
2019-05-14T01:39:23.873Z,6.37
2019-05-14T01:40:23.856Z,6.25
2019-05-14T01:41:23.876Z,6.32
2019-05-14T01:42:23.839Z,6.32
2019-05-14T01:43:23.822Z,6.35
2019-05-14T01:44:23.821Z,6.27
2019-05-14T01:45:28.253Z,6.24
2019-05-14T01:46:23.819Z,6.12
2019-05-14T01:47:23.785Z,6.15
2019-05-14T01:48:23.772Z,6.11
2019-05-14T01:49:23.755Z,6.11
2019-05-14T01:50:23.745Z,6.11
2019-05-14T01:51:23.759Z,6.13
2019-05-14T01:52:23.726Z,6.18
2019-05-14T01:53:23.716Z,6.09
2019-05-14T01:54:23.708Z,6.08
2019-05-14T01:55:23.692Z,6.06
2019-05-14T01:56:23.703Z,6.12
2019-05-14T01:57:23.669Z,6.16
2019-05-14T01:58:23.663Z,6.13
2019-05-14T01:59:23.648Z,6.21
2019-05-14T02:00:23.640Z,6.11
2019-05-14T02:01:23.651Z,6.08
2019-05-14T02:02:23.614Z,6.13
2019-05-14T02:03:23.605Z,6.08
2019-05-14T02:04:23.596Z,6.06
2019-05-14T02:05:23.585Z,6.05
2019-05-14T02:06:23.595Z,6.06
2019-05-14T02:07:23.560Z,6.02
2019-05-14T02:08:23.552Z,6.02
2019-05-14T02:09:23.539Z,6.09
2019-05-14T02:10:23.530Z,5.94
2019-05-14T02:11:23.545Z,5.90
2019-05-14T02:12:23.510Z,5.95
2019-05-14T02:13:23.496Z,5.85
2019-05-14T02:14:23.485Z,5.85
2019-05-14T02:15:36.345Z,5.88
2019-05-14T02:16:23.488Z,5.87
2019-05-14T02:17:23.450Z,5.87
2019-05-14T02:18:23.443Z,5.82
2019-05-14T02:19:23.432Z,5.84
2019-05-14T02:20:23.420Z,5.77
2019-05-14T02:21:23.433Z,5.70
2019-05-14T02:22:23.395Z,5.73
2019-05-14T02:23:23.388Z,5.80
2019-05-14T02:24:23.385Z,5.87
2019-05-14T02:25:23.370Z,5.79
2019-05-14T02:26:23.376Z,5.88
2019-05-14T02:27:23.346Z,5.79
2019-05-14T02:28:23.355Z,5.80
2019-05-14T02:29:23.325Z,5.80
2019-05-14T02:30:32.344Z,5.69
2019-05-14T02:31:23.331Z,5.66
2019-05-14T02:32:23.294Z,5.69
2019-05-14T02:33:23.277Z,5.62
2019-05-14T02:34:23.276Z,5.55
2019-05-14T02:35:23.255Z,5.72
2019-05-14T02:36:23.271Z,5.50
2019-05-14T02:37:23.237Z,5.67
2019-05-14T02:38:23.229Z,5.48
2019-05-14T02:39:23.212Z,5.51
2019-05-14T02:40:23.202Z,5.52
2019-05-14T02:41:23.217Z,5.50
2019-05-14T02:42:23.185Z,5.39
2019-05-14T02:43:23.169Z,5.36
2019-05-14T02:44:23.162Z,5.30
2019-05-14T02:45:23.153Z,5.41
2019-05-14T02:46:23.192Z,5.32
2019-05-14T02:47:23.125Z,5.32
2019-05-14T02:48:23.118Z,5.37
2019-05-14T02:49:23.103Z,5.41
2019-05-14T02:50:23.100Z,5.40
2019-05-14T02:51:23.087Z,5.48
2019-05-14T02:52:23.099Z,5.40
2019-05-14T02:53:23.066Z,5.40
2019-05-14T02:54:23.049Z,5.36
2019-05-14T02:55:23.041Z,5.34
2019-05-14T02:56:23.030Z,5.32
2019-05-14T02:57:23.044Z,5.25
2019-05-14T02:58:23.009Z,5.27
2019-05-14T02:59:22.995Z,5.25
2019-05-14T03:00:22.987Z,5.27
2019-05-14T03:01:22.974Z,5.15
2019-05-14T03:02:22.987Z,5.15
2019-05-14T03:03:22.952Z,5.14
2019-05-14T03:04:22.940Z,5.11
2019-05-14T03:05:22.931Z,5.03
2019-05-14T03:06:22.925Z,5.01
2019-05-14T03:07:22.972Z,4.98
2019-05-14T03:08:22.900Z,5.04
2019-05-14T03:09:22.885Z,4.97
2019-05-14T03:10:22.879Z,4.96
2019-05-14T03:11:22.873Z,4.94
2019-05-14T03:12:22.880Z,5.04
2019-05-14T03:13:22.842Z,4.88
2019-05-14T03:14:22.834Z,5.00
2019-05-14T03:15:22.821Z,4.94
2019-05-14T03:16:30.977Z,5.01
2019-05-14T03:17:22.827Z,5.01
2019-05-14T03:18:22.791Z,5.01
2019-05-14T03:19:22.777Z,4.96
2019-05-14T03:20:22.765Z,4.94
2019-05-14T03:21:22.759Z,4.97
2019-05-14T03:22:28.500Z,4.94
2019-05-14T03:23:23.736Z,4.98
2019-05-14T03:24:22.724Z,4.93
2019-05-14T03:25:22.712Z,4.93
2019-05-14T03:26:22.704Z,4.69
2019-05-14T03:27:22.714Z,4.77
2019-05-14T03:28:22.681Z,4.82
2019-05-14T03:29:25.999Z,4.72
2019-05-14T03:30:23.598Z,4.64
2019-05-14T03:31:23.008Z,4.72
2019-05-14T03:32:23.274Z,4.60
2019-05-14T03:33:22.801Z,4.56
2019-05-14T03:34:22.881Z,4.57
2019-05-14T03:35:28.778Z,4.60
2019-05-14T03:36:26.397Z,4.53
2019-05-14T03:37:24.240Z,4.51
2019-05-14T03:38:22.571Z,4.49
2019-05-14T03:39:22.562Z,4.56
2019-05-14T03:40:22.550Z,4.54
2019-05-14T03:41:22.542Z,4.53
2019-05-14T03:42:22.551Z,4.54
2019-05-14T03:43:22.518Z,4.56
2019-05-14T03:44:22.518Z,4.53
2019-05-14T03:45:22.496Z,4.54
2019-05-14T03:46:39.809Z,4.57
2019-05-14T03:47:22.508Z,4.63
2019-05-14T03:48:22.463Z,4.63
2019-05-14T03:49:22.450Z,4.63
2019-05-14T03:50:22.440Z,4.67
2019-05-14T03:51:22.431Z,4.67
2019-05-14T03:52:22.446Z,4.66
2019-05-14T03:53:22.411Z,4.75
2019-05-14T03:54:22.396Z,4.69
2019-05-14T03:55:22.396Z,4.69
2019-05-14T03:56:22.378Z,4.79
2019-05-14T03:57:22.393Z,4.60
2019-05-14T03:58:22.356Z,4.64
2019-05-14T03:59:22.418Z,4.69
2019-05-14T04:00:22.353Z,4.63
2019-05-14T04:01:22.320Z,4.67
2019-05-14T04:02:22.346Z,4.69
2019-05-14T04:03:22.308Z,4.71
2019-05-14T04:04:22.298Z,4.67
2019-05-14T04:05:22.878Z,4.64
2019-05-14T04:06:22.269Z,4.74
2019-05-14T04:07:22.288Z,4.67
2019-05-14T04:08:22.243Z,4.71
2019-05-14T04:09:22.232Z,4.63
2019-05-14T04:10:22.231Z,4.77
2019-05-14T04:11:22.214Z,4.67
2019-05-14T04:12:22.236Z,4.69
2019-05-14T04:13:22.195Z,4.77
2019-05-14T04:14:22.199Z,4.69
2019-05-14T04:15:22.172Z,4.67
2019-05-14T04:16:22.157Z,4.60
2019-05-14T04:17:32.545Z,4.74
2019-05-14T04:18:22.139Z,4.77
2019-05-14T04:19:22.131Z,4.74
2019-05-14T04:20:22.116Z,4.78
2019-05-14T04:21:22.116Z,4.67
2019-05-14T04:22:22.120Z,4.59
2019-05-14T04:23:22.085Z,4.78
2019-05-14T04:24:22.074Z,4.67
2019-05-14T04:25:22.067Z,4.72
2019-05-14T04:26:22.061Z,4.71
2019-05-14T04:27:22.062Z,4.74
2019-05-14T04:28:22.028Z,4.72
2019-05-14T04:29:22.018Z,4.66
2019-05-14T04:30:24.320Z,4.74
2019-05-14T04:31:22.002Z,4.67
2019-05-14T04:32:22.092Z,4.67
2019-05-14T04:33:22.004Z,4.64
2019-05-14T04:34:21.994Z,4.51
2019-05-14T04:35:21.956Z,4.39
2019-05-14T04:36:21.950Z,4.36
2019-05-14T04:37:21.946Z,4.31
2019-05-14T04:38:21.977Z,4.20
2019-05-14T04:39:21.915Z,4.17
2019-05-14T04:40:21.905Z,4.12
2019-05-14T04:41:21.890Z,4.18
2019-05-14T04:42:21.879Z,4.18
2019-05-14T04:43:21.911Z,4.20
2019-05-14T04:44:21.872Z,4.18
2019-05-14T04:45:21.841Z,4.23
2019-05-14T04:46:21.834Z,4.30
2019-05-14T04:47:31.137Z,4.35
2019-05-14T04:48:32.452Z,4.39
2019-05-14T04:49:21.801Z,4.49
2019-05-14T04:50:25.460Z,4.54
2019-05-14T04:51:21.805Z,4.57
2019-05-14T04:52:21.772Z,4.54
2019-05-14T04:53:21.783Z,4.54
2019-05-14T04:54:21.754Z,4.61
2019-05-14T04:55:21.736Z,4.61
2019-05-14T04:56:21.734Z,4.60
2019-05-14T04:57:25.469Z,4.61
2019-05-14T04:58:21.960Z,4.61
2019-05-14T04:59:21.709Z,4.60
2019-05-14T05:00:21.690Z,4.56
2019-05-14T05:01:21.691Z,4.57
2019-05-14T05:02:21.666Z,4.60
2019-05-14T05:03:21.668Z,4.71
2019-05-14T05:04:21.659Z,4.72
2019-05-14T05:05:21.626Z,4.67
2019-05-14T05:06:21.621Z,4.61
2019-05-14T05:07:21.603Z,4.60
2019-05-14T05:08:21.617Z,4.64
2019-05-14T05:09:21.592Z,4.77
2019-05-14T05:10:21.581Z,4.83
2019-05-14T05:11:21.846Z,4.85
2019-05-14T05:12:21.551Z,4.89
2019-05-14T05:13:21.562Z,4.77
2019-05-14T05:14:23.769Z,4.74
2019-05-14T05:15:21.516Z,4.83
2019-05-14T05:16:21.506Z,4.93
2019-05-14T05:17:21.520Z,4.82
2019-05-14T05:18:21.508Z,4.89
2019-05-14T05:19:21.480Z,4.93
2019-05-14T05:20:21.471Z,4.83
2019-05-14T05:21:21.450Z,4.96
2019-05-14T05:22:21.440Z,4.93
2019-05-14T05:23:21.453Z,4.96
2019-05-14T05:24:21.419Z,4.93
2019-05-14T05:25:21.656Z,5.01
2019-05-14T05:26:21.399Z,4.96
2019-05-14T05:27:21.387Z,5.00
2019-05-14T05:28:21.419Z,4.98
2019-05-14T05:29:21.366Z,5.00
2019-05-14T05:30:21.354Z,5.06
2019-05-14T05:31:21.342Z,5.06
2019-05-14T05:32:21.348Z,5.06
2019-05-14T05:33:21.347Z,5.18
2019-05-14T05:34:21.314Z,5.15
2019-05-14T05:35:21.299Z,5.11
2019-05-14T05:36:21.293Z,5.24
2019-05-14T05:37:21.274Z,5.25
2019-05-14T05:38:21.659Z,5.33
2019-05-14T05:39:21.411Z,5.39
2019-05-14T05:40:21.286Z,5.37
2019-05-14T05:41:21.240Z,5.43
2019-05-14T05:42:21.220Z,5.39
2019-05-14T05:43:21.236Z,5.44
2019-05-14T05:44:21.269Z,5.54
2019-05-14T05:45:21.192Z,5.55
2019-05-14T05:46:21.177Z,5.61
2019-05-14T05:47:21.170Z,5.67
2019-05-14T05:48:21.182Z,5.65
2019-05-14T05:49:21.149Z,5.73
2019-05-14T05:50:21.139Z,5.84
2019-05-14T05:51:21.127Z,5.82
2019-05-14T05:52:21.115Z,5.90
2019-05-14T05:53:21.187Z,6.00
2019-05-14T05:54:21.109Z,6.09
2019-05-14T05:55:21.081Z,6.11
2019-05-14T05:56:21.070Z,6.13
2019-05-14T05:57:21.084Z,6.24
2019-05-14T05:58:21.050Z,6.27
2019-05-14T05:59:21.062Z,6.25
2019-05-14T06:00:21.091Z,6.21
2019-05-14T06:01:21.014Z,6.42
2019-05-14T06:02:21.017Z,6.45
2019-05-14T06:03:21.211Z,6.47
2019-05-14T06:04:21.007Z,6.56
2019-05-14T06:05:20.987Z,6.46
2019-05-14T06:06:20.959Z,6.71
2019-05-14T06:07:20.952Z,6.67
2019-05-14T06:08:20.948Z,6.70
2019-05-14T06:09:20.985Z,6.83
2019-05-14T06:10:20.926Z,6.86
2019-05-14T06:11:20.913Z,6.92
2019-05-14T06:12:20.898Z,6.81
2019-05-14T06:13:20.886Z,6.96
2019-05-14T06:14:20.899Z,6.99
2019-05-14T06:15:20.861Z,6.93
2019-05-14T06:16:20.852Z,7.08
2019-05-14T06:17:20.867Z,7.07
2019-05-14T06:18:22.091Z,7.08
2019-05-14T06:19:20.846Z,7.19
2019-05-14T06:20:20.810Z,7.19
2019-05-14T06:21:20.816Z,7.29
2019-05-14T06:22:20.785Z,7.29
2019-05-14T06:23:20.782Z,7.36
2019-05-14T06:24:20.793Z,7.33
2019-05-14T06:25:21.278Z,7.42
2019-05-14T06:26:20.743Z,7.46
2019-05-14T06:27:20.729Z,7.54
2019-05-14T06:28:21.133Z,7.52
2019-05-14T06:29:20.731Z,7.60
2019-05-14T06:30:20.706Z,7.64
2019-05-14T06:31:20.686Z,7.69
2019-05-14T06:32:20.674Z,7.71
2019-05-14T06:33:20.663Z,7.68
2019-05-14T06:34:20.677Z,7.81
2019-05-14T06:35:20.646Z,7.84
2019-05-14T06:36:20.631Z,7.91
2019-05-14T06:37:20.621Z,7.76
2019-05-14T06:38:20.609Z,7.88
2019-05-14T06:39:20.619Z,7.98
2019-05-14T06:40:20.586Z,8.01
2019-05-14T06:41:20.588Z,8.06
2019-05-14T06:42:20.568Z,8.10
2019-05-14T06:43:20.553Z,8.10
2019-05-14T06:44:20.567Z,8.17
2019-05-14T06:45:20.533Z,8.19
2019-05-14T06:46:20.518Z,8.23
2019-05-14T06:47:20.509Z,8.20
2019-05-14T06:48:30.885Z,8.29
2019-05-14T06:49:20.510Z,8.38
2019-05-14T06:50:20.477Z,8.35
2019-05-14T06:51:20.466Z,8.42
2019-05-14T06:52:20.516Z,8.44
2019-05-14T06:53:20.545Z,8.44
2019-05-14T06:54:20.453Z,8.57
2019-05-14T06:55:20.419Z,8.53
2019-05-14T06:56:21.704Z,8.63
2019-05-14T06:57:20.397Z,8.75
2019-05-14T06:58:20.629Z,8.72
2019-05-14T06:59:20.404Z,8.74
2019-05-14T07:00:20.367Z,8.68
2019-05-14T07:01:20.351Z,8.74
2019-05-14T07:02:20.341Z,8.83
2019-05-14T07:03:20.334Z,8.86
2019-05-14T07:04:20.352Z,8.81
2019-05-14T07:05:20.309Z,8.81
2019-05-14T07:06:20.310Z,8.92
2019-05-14T07:07:20.729Z,9.04
2019-05-14T07:08:20.276Z,9.01
2019-05-14T07:09:20.285Z,9.14
2019-05-14T07:10:20.256Z,9.06
2019-05-14T07:11:20.244Z,9.12
2019-05-14T07:12:20.230Z,9.19
2019-05-14T07:13:20.219Z,9.26
2019-05-14T07:14:20.231Z,9.22
2019-05-14T07:15:20.210Z,9.30
2019-05-14T07:16:20.188Z,9.30
2019-05-14T07:17:20.177Z,9.34
2019-05-14T07:18:20.169Z,9.41
2019-05-14T07:19:20.175Z,9.50
2019-05-14T07:20:20.141Z,9.47
2019-05-14T07:21:20.133Z,9.66
2019-05-14T07:22:20.118Z,9.54
2019-05-14T07:23:20.108Z,9.52
2019-05-14T07:24:20.120Z,9.60
2019-05-14T07:25:20.100Z,9.70
2019-05-14T07:26:20.079Z,9.72
2019-05-14T07:27:20.062Z,9.77
2019-05-14T07:28:20.062Z,9.80
2019-05-14T07:29:20.071Z,9.80
2019-05-14T07:30:20.029Z,9.83
2019-05-14T07:31:20.017Z,9.91
2019-05-14T07:32:20.028Z,10.01
2019-05-14T07:33:19.998Z,9.94
2019-05-14T07:34:20.009Z,9.93
2019-05-14T07:35:19.976Z,10.09
2019-05-14T07:36:19.962Z,10.20
2019-05-14T07:37:19.950Z,10.17
2019-05-14T07:38:19.942Z,10.14
2019-05-14T07:39:19.958Z,10.17
2019-05-14T07:40:19.919Z,10.17
2019-05-14T07:41:19.909Z,10.21
2019-05-14T07:42:19.903Z,10.20
2019-05-14T07:43:19.885Z,10.17
2019-05-14T07:44:19.902Z,10.28
2019-05-14T07:45:19.862Z,10.27
2019-05-14T07:46:19.851Z,10.26
2019-05-14T07:47:19.840Z,10.28
2019-05-14T07:48:19.833Z,10.27
2019-05-14T07:49:19.843Z,10.38
2019-05-14T07:50:19.827Z,10.45
2019-05-14T07:51:19.838Z,10.46
2019-05-14T07:52:19.981Z,10.54
2019-05-14T07:53:19.774Z,10.57
2019-05-14T07:54:19.805Z,10.64
2019-05-14T07:55:19.756Z,10.70
2019-05-14T07:56:19.744Z,10.82
2019-05-14T07:57:19.770Z,10.80
2019-05-14T07:58:19.898Z,10.82
2019-05-14T07:59:19.719Z,10.80
2019-05-14T08:00:19.781Z,10.90
2019-05-14T08:01:19.687Z,11.00
2019-05-14T08:02:19.707Z,11.09
2019-05-14T08:03:19.668Z,11.04
2019-05-14T08:04:20.096Z,11.18
2019-05-14T08:05:19.666Z,11.09
2019-05-14T08:06:19.644Z,11.13
2019-05-14T08:07:19.618Z,11.16
2019-05-14T08:08:19.626Z,11.20
2019-05-14T08:09:19.600Z,11.25
2019-05-14T08:10:19.611Z,11.33
2019-05-14T08:11:19.578Z,11.38
2019-05-14T08:12:19.570Z,11.37
2019-05-14T08:13:19.563Z,11.48
2019-05-14T08:14:19.543Z,11.51
2019-05-14T08:15:22.389Z,11.59
2019-05-14T08:16:19.519Z,11.61
2019-05-14T08:17:19.511Z,11.66
2019-05-14T08:18:20.928Z,11.74
2019-05-14T08:19:26.973Z,11.71
2019-05-14T08:20:19.509Z,11.88
2019-05-14T08:21:19.758Z,11.77
2019-05-14T08:22:19.456Z,11.79
2019-05-14T08:23:19.443Z,11.85
2019-05-14T08:24:26.317Z,11.91
2019-05-14T08:25:19.448Z,11.99
2019-05-14T08:26:19.543Z,11.95
2019-05-14T08:27:19.432Z,12.03
2019-05-14T08:28:21.212Z,12.13
2019-05-14T08:29:19.381Z,12.11
2019-05-14T08:30:19.392Z,12.18
2019-05-14T08:31:19.354Z,12.25
2019-05-14T08:32:19.345Z,12.25
2019-05-14T08:33:19.336Z,12.30
2019-05-14T08:34:19.357Z,12.38
2019-05-14T08:35:19.333Z,12.40
2019-05-14T08:36:19.303Z,12.43
2019-05-14T08:37:19.368Z,12.51
2019-05-14T08:38:19.279Z,12.54
2019-05-14T08:39:19.267Z,12.53
2019-05-14T08:40:20.949Z,12.63
2019-05-14T08:41:20.016Z,12.66
2019-05-14T08:42:19.240Z,12.76
2019-05-14T08:43:19.223Z,12.69
2019-05-14T08:44:19.705Z,12.73
2019-05-14T08:45:19.227Z,12.81
2019-05-14T08:46:19.518Z,12.88
2019-05-14T08:47:19.183Z,12.86
2019-05-14T08:48:19.238Z,12.87
2019-05-14T08:49:19.209Z,13.04
2019-05-14T08:50:19.200Z,12.98
2019-05-14T08:51:19.185Z,13.08
2019-05-14T08:52:19.349Z,13.06
2019-05-14T08:53:19.112Z,13.04
2019-05-14T08:54:19.106Z,13.16
2019-05-14T08:55:19.125Z,13.19
2019-05-14T08:56:19.417Z,13.26
2019-05-14T08:57:19.290Z,13.30
2019-05-14T08:58:20.329Z,13.35
2019-05-14T08:59:19.702Z,13.43
2019-05-14T09:00:19.064Z,13.45
2019-05-14T09:01:19.636Z,13.43
2019-05-14T09:02:19.616Z,13.58
2019-05-14T09:03:19.397Z,13.58
2019-05-14T09:04:22.190Z,13.58
2019-05-14T09:05:19.013Z,13.64
2019-05-14T09:06:19.020Z,13.85
2019-05-14T09:07:18.959Z,13.85
2019-05-14T09:08:19.299Z,13.82
2019-05-14T09:09:22.184Z,13.97
2019-05-14T09:10:19.426Z,13.98
2019-05-14T09:11:24.462Z,13.98
2019-05-14T09:12:19.904Z,14.13
2019-05-14T09:13:18.898Z,14.26
2019-05-14T09:14:18.949Z,14.26
2019-05-14T09:15:18.893Z,14.27
2019-05-14T09:16:19.405Z,14.22
2019-05-14T09:17:18.906Z,14.23
2019-05-14T09:18:18.842Z,14.28
2019-05-14T09:19:19.420Z,14.28
2019-05-14T09:20:18.965Z,14.33
2019-05-14T09:21:20.485Z,14.30
2019-05-14T09:22:18.828Z,14.36
2019-05-14T09:23:19.150Z,14.48
2019-05-14T09:24:18.845Z,14.55
2019-05-14T09:25:19.124Z,14.44
2019-05-14T09:26:18.749Z,14.59
2019-05-14T09:27:19.383Z,14.56
2019-05-14T09:28:18.968Z,14.58
2019-05-14T09:29:25.557Z,14.59
2019-05-14T09:30:18.826Z,14.58
2019-05-14T09:31:19.699Z,14.56
2019-05-14T09:32:19.378Z,14.59
2019-05-14T09:33:19.407Z,14.61
2019-05-14T09:34:19.603Z,14.66
2019-05-14T09:35:19.007Z,14.79
2019-05-14T09:36:22.985Z,14.85
2019-05-14T09:37:19.629Z,14.87
2019-05-14T09:38:18.989Z,14.85
2019-05-14T09:39:18.952Z,14.90
2019-05-14T09:40:19.858Z,14.99
2019-05-14T09:41:18.831Z,15.17
2019-05-14T09:42:19.620Z,15.25
2019-05-14T09:43:18.571Z,15.38
2019-05-14T09:44:18.789Z,15.56
2019-05-14T09:45:18.932Z,15.68
2019-05-14T09:46:18.825Z,15.80
2019-05-14T09:47:19.061Z,15.81
2019-05-14T09:48:18.508Z,15.90
2019-05-14T09:49:18.797Z,15.84
2019-05-14T09:50:22.722Z,15.83
2019-05-14T09:51:18.678Z,15.88
2019-05-14T09:52:18.836Z,15.91
2019-05-14T09:53:18.456Z,15.78
2019-05-14T09:54:19.252Z,15.78
2019-05-14T09:55:18.431Z,15.68
2019-05-14T09:56:18.884Z,15.70
2019-05-14T09:57:18.987Z,15.72
2019-05-14T09:58:20.051Z,15.76
2019-05-14T09:59:18.661Z,15.80
2019-05-14T10:00:18.812Z,15.72
2019-05-14T10:01:19.463Z,15.66
2019-05-14T10:02:18.351Z,15.54
2019-05-14T10:03:19.168Z,15.59
2019-05-14T10:04:18.331Z,15.63
2019-05-14T10:05:19.497Z,15.58
2019-05-14T10:06:20.717Z,15.63
2019-05-14T10:07:18.297Z,15.70
2019-05-14T10:08:19.338Z,15.73
2019-05-14T10:09:18.277Z,15.76
2019-05-14T10:10:19.599Z,15.76
2019-05-14T10:11:18.278Z,15.73
2019-05-14T10:12:18.241Z,15.72
2019-05-14T10:13:18.233Z,15.73
2019-05-14T10:14:18.224Z,15.68
2019-05-14T10:15:18.215Z,15.72
2019-05-14T10:16:19.031Z,15.77
2019-05-14T10:17:19.384Z,15.83
2019-05-14T10:18:19.071Z,15.98
2019-05-14T10:19:19.214Z,15.99
2019-05-14T10:20:35.583Z,16.06
2019-05-14T10:21:19.145Z,16.09
2019-05-14T10:22:19.803Z,16.08
2019-05-14T10:23:18.892Z,16.17
2019-05-14T10:24:18.777Z,16.13
2019-05-14T10:25:18.269Z,16.09
2019-05-14T10:26:18.701Z,16.03
2019-05-14T10:27:18.962Z,16.08
2019-05-14T10:28:19.273Z,16.05
2019-05-14T10:29:19.146Z,15.95
2019-05-14T10:30:18.294Z,16.09
2019-05-14T10:31:18.474Z,16.22
2019-05-14T10:32:18.794Z,16.29
2019-05-14T10:33:18.249Z,16.24
2019-05-14T10:34:19.219Z,16.29
2019-05-14T10:35:19.168Z,16.39
2019-05-14T10:36:19.281Z,16.55
2019-05-14T10:37:19.181Z,16.62
2019-05-14T10:38:19.015Z,16.74
2019-05-14T10:39:19.162Z,16.88
2019-05-14T10:40:18.360Z,16.90
2019-05-14T10:41:18.463Z,16.74
2019-05-14T10:42:20.108Z,16.79
2019-05-14T10:43:19.495Z,16.72
2019-05-14T10:44:18.750Z,16.88
2019-05-14T10:45:18.621Z,16.80
2019-05-14T10:46:19.353Z,16.80
2019-05-14T10:47:18.833Z,16.74
2019-05-14T10:48:18.622Z,16.82
2019-05-14T10:49:23.577Z,16.80
2019-05-14T10:50:18.314Z,16.76
2019-05-14T10:51:18.217Z,16.88
2019-05-14T10:52:19.739Z,16.91
2019-05-14T10:53:20.221Z,17.07
2019-05-14T10:54:25.018Z,17.14
2019-05-14T10:55:18.549Z,17.38
2019-05-14T10:56:19.199Z,17.47
2019-05-14T10:57:18.346Z,17.59
2019-05-14T10:58:19.502Z,17.81
2019-05-14T10:59:18.433Z,17.91
2019-05-14T11:00:18.610Z,17.97
2019-05-14T11:01:22.190Z,18.20
2019-05-14T11:02:18.564Z,18.34
2019-05-14T11:03:18.632Z,18.42
2019-05-14T11:04:18.983Z,18.51
2019-05-14T11:05:18.704Z,18.52
2019-05-14T11:06:18.842Z,18.67
2019-05-14T11:07:18.628Z,18.68
2019-05-14T11:08:18.909Z,18.66
2019-05-14T11:09:18.104Z,18.68
2019-05-14T11:10:19.455Z,18.75
2019-05-14T11:11:18.504Z,18.97
2019-05-14T11:12:19.341Z,19.05
2019-05-14T11:13:19.022Z,19.17
2019-05-14T11:14:19.251Z,19.30
2019-05-14T11:15:19.130Z,19.41
2019-05-14T11:16:19.056Z,19.41
2019-05-14T11:17:19.682Z,19.52
2019-05-14T11:18:19.795Z,19.54
2019-05-14T11:19:18.840Z,19.62
2019-05-14T11:20:19.226Z,19.70
2019-05-14T11:21:25.979Z,19.78
2019-05-14T11:22:18.640Z,19.77
2019-05-14T11:23:18.416Z,19.74
2019-05-14T11:24:18.839Z,19.74
2019-05-14T11:25:19.651Z,19.60
2019-05-14T11:26:18.416Z,19.57
2019-05-14T11:27:18.627Z,19.75
2019-05-14T11:28:19.122Z,19.60
2019-05-14T11:29:18.592Z,19.41
2019-05-14T11:30:19.311Z,19.34
2019-05-14T11:31:19.111Z,19.22
2019-05-14T11:32:18.393Z,19.19
2019-05-14T11:33:18.736Z,19.16
2019-05-14T11:34:19.273Z,18.98
2019-05-14T11:35:19.167Z,18.89
2019-05-14T11:36:18.756Z,18.74
2019-05-14T11:37:18.726Z,18.67
2019-05-14T11:38:31.876Z,18.60
2019-05-14T11:39:18.304Z,18.60
2019-05-14T11:40:18.978Z,18.63
2019-05-14T11:41:18.622Z,18.78
2019-05-14T11:42:19.668Z,18.71
2019-05-14T11:43:17.258Z,18.83
2019-05-14T11:44:17.246Z,18.91
2019-05-14T11:45:17.243Z,19.08
2019-05-14T11:46:24.967Z,19.20
2019-05-14T11:47:18.293Z,19.26
2019-05-14T11:48:19.271Z,19.32
2019-05-14T11:49:19.374Z,19.54
2019-05-14T11:50:19.305Z,19.62
2019-05-14T11:51:19.242Z,19.56
2019-05-14T11:52:18.043Z,19.68
2019-05-14T11:53:19.775Z,19.71
2019-05-14T11:54:18.777Z,19.84
2019-05-14T11:55:18.735Z,19.94
2019-05-14T11:56:19.498Z,19.79
2019-05-14T11:57:19.328Z,19.79
2019-05-14T11:58:20.644Z,19.86
2019-05-14T11:59:18.959Z,19.92
2019-05-14T12:00:19.444Z,19.90
2019-05-14T12:01:18.938Z,19.72
2019-05-14T12:02:18.962Z,19.70
2019-05-14T12:03:19.602Z,19.82
2019-05-14T12:04:18.822Z,19.86
2019-05-14T12:05:18.921Z,19.96
2019-05-14T12:06:18.605Z,19.99
2019-05-14T12:07:18.711Z,20.05
2019-05-14T12:08:18.544Z,20.14
2019-05-14T12:09:18.947Z,19.96
2019-05-14T12:10:18.793Z,19.97
2019-05-14T12:11:19.234Z,19.82
2019-05-14T12:12:19.067Z,19.77
2019-05-14T12:13:19.253Z,19.74
2019-05-14T12:14:18.967Z,19.60
2019-05-14T12:15:18.780Z,19.62
2019-05-14T12:16:16.899Z,19.54
2019-05-14T12:17:16.916Z,19.59
2019-05-14T12:18:18.536Z,19.57
2019-05-14T12:19:18.853Z,19.70
2019-05-14T12:20:16.871Z,19.77
2019-05-14T12:21:16.851Z,19.82
2019-05-14T12:22:19.045Z,19.72
2019-05-14T12:23:19.007Z,19.90
2019-05-14T12:24:18.464Z,19.97
2019-05-14T12:25:18.924Z,20.02
2019-05-14T12:26:19.155Z,19.70
2019-05-14T12:27:19.179Z,19.57
2019-05-14T12:28:19.139Z,19.30
2019-05-14T12:29:16.765Z,19.44
2019-05-14T12:30:19.455Z,19.60
2019-05-14T12:31:16.743Z,19.75
2019-05-14T12:32:18.929Z,19.84
2019-05-14T12:33:19.342Z,19.96
2019-05-14T12:34:18.586Z,20.09
2019-05-14T12:35:19.439Z,20.19
2019-05-14T12:36:18.992Z,20.08
2019-05-14T12:37:18.590Z,20.04
2019-05-14T12:38:18.756Z,20.09
2019-05-14T12:39:18.790Z,19.99
2019-05-14T12:40:19.173Z,20.17
2019-05-14T12:41:19.455Z,20.22
2019-05-14T12:42:19.407Z,20.25
2019-05-14T12:43:18.805Z,19.99
2019-05-14T12:44:19.356Z,19.78
2019-05-14T12:45:19.069Z,19.62
2019-05-14T12:46:16.676Z,19.42
2019-05-14T12:47:18.792Z,19.24
2019-05-14T12:48:18.802Z,19.32
2019-05-14T12:49:18.675Z,19.41
2019-05-14T12:50:16.544Z,19.47
2019-05-14T12:51:18.570Z,19.54
2019-05-14T12:52:24.767Z,19.60
2019-05-14T12:53:19.718Z,19.54
2019-05-14T12:54:16.501Z,19.77
2019-05-14T12:55:19.030Z,19.82
2019-05-14T12:56:18.767Z,20.04
2019-05-14T12:57:18.796Z,20.12
2019-05-14T12:58:19.820Z,20.32
2019-05-14T12:59:16.447Z,20.33
2019-05-14T13:00:16.458Z,20.27
2019-05-14T13:01:19.696Z,20.39
2019-05-14T13:02:18.790Z,20.53
2019-05-14T13:03:18.863Z,20.53
2019-05-14T13:04:19.874Z,20.50
2019-05-14T13:05:18.379Z,20.46
2019-05-14T13:06:19.040Z,20.53
2019-05-14T13:07:16.400Z,20.58